Time;durP1;ratioP1;P1;durP2;ratioP2;P2;SDS_P1;SDS_P2;PMS_P1;PMS_P2;Temp;Humidity;BMP_temperature;BMP_pressure;BME280_temperature;BME280_humidity;BME280_pressure;Samples;Min_cycle;Max_cycle;Signal;HPM_P1;HPM_P2
2023/10/01 00:00:48;;;;;;;4.03;1.65;;;;;;;22.70;100.00;102040.34;4951913;29;20043;-48
2023/10/01 00:03:15;;;;;;;4.25;2.20;;;;;;;22.70;100.00;102040.34;4951426;29;20055;-48
2023/10/01 00:05:41;;;;;;;4.68;2.13;;;;;;;22.72;100.00;102043.53;4945375;29;20055;-46
2023/10/01 00:08:08;;;;;;;4.47;1.70;;;;;;;22.67;100.00;102036.44;4927760;29;20094;-48
2023/10/01 00:10:35;;;;;;;4.53;2.20;;;;;;;22.73;100.00;102033.75;4938137;28;20868;-48
2023/10/01 00:13:02;;;;;;;4.47;2.05;;;;;;;22.70;100.00;102037.53;4931051;29;20134;-47
2023/10/01 00:15:30;;;;;;;3.33;1.73;;;;;;;22.72;100.00;102037.84;4946631;29;20079;-48
2023/10/01 00:17:57;;;;;;;5.38;2.00;;;;;;;22.69;100.00;102036.75;4948795;29;20133;-49
2023/10/01 00:20:25;;;;;;;3.38;1.80;;;;;;;22.69;100.00;102041.63;4944164;28;20052;-47
2023/10/01 00:23:03;;;;;;;4.13;2.03;;;;;;;22.68;100.00;102040.81;4951362;29;20082;-48
2023/10/01 00:25:32;;;;;;;4.25;1.75;;;;;;;22.65;100.00;102029.66;4938715;29;20169;-48
2023/10/01 00:27:59;;;;;;;12.52;1.83;;;;;;;22.83;100.00;102041.81;4948280;29;20055;-48
2023/10/01 00:30:32;;;;;;;4.22;1.92;;;;;;;22.73;100.00;102034.56;4951047;29;20158;-49
2023/10/01 00:33:06;;;;;;;3.17;1.70;;;;;;;22.71;100.00;102039.13;4943243;28;20062;-48
2023/10/01 00:35:33;;;;;;;3.88;1.80;;;;;;;22.70;100.00;102043.19;4936415;29;20051;-48
2023/10/01 00:38:01;;;;;;;4.05;1.70;;;;;;;22.74;100.00;102035.34;4943947;29;20067;-50
2023/10/01 00:40:28;;;;;;;4.07;1.73;;;;;;;22.69;100.00;102044.47;4948325;29;20047;-48
2023/10/01 00:42:57;;;;;;;6.00;2.00;;;;;;;22.71;100.00;102039.13;4931395;29;20051;-47
2023/10/01 00:45:25;;;;;;;4.55;1.83;;;;;;;22.71;100.00;102041.97;4949022;28;20047;-47
2023/10/01 00:47:52;;;;;;;3.85;1.83;;;;;;;22.68;100.00;102031.56;4948135;28;20057;-48
2023/10/01 00:50:23;;;;;;;4.47;2.03;;;;;;;22.68;100.00;102040.06;4941292;29;20058;-48
2023/10/01 00:52:51;;;;;;;4.25;2.17;;;;;;;22.66;100.00;102025.56;4945764;28;20051;-48
2023/10/01 00:55:20;;;;;;;3.40;1.52;;;;;;;22.66;100.00;102028.38;4947415;29;20134;-45
2023/10/01 00:57:49;;;;;;;4.10;1.65;;;;;;;22.66;100.00;102023.53;4948624;29;20051;-47
2023/10/01 01:00:16;;;;;;;3.58;1.83;;;;;;;22.69;100.00;102030.28;4949107;29;20051;-48
2023/10/01 01:03:19;;;;;;;2.53;1.67;;;;;;;22.70;100.00;102023.34;4944191;28;20142;-46
2023/10/01 01:05:41;;;;;;;3.40;1.75;;;;;;;22.68;100.00;102015.31;4942627;29;20054;-47
2023/10/01 01:08:10;;;;;;;4.90;1.85;;;;;;;22.70;100.00;102012.00;4950980;29;20066;-48
2023/10/01 01:10:41;;;;;;;3.97;1.83;;;;;;;22.63;100.00;102013.13;4949593;29;20078;-47
2023/10/01 01:13:08;;;;;;;4.28;1.63;;;;;;;22.66;100.00;102017.06;4947465;29;20058;-48
2023/10/01 01:15:36;;;;;;;3.50;1.60;;;;;;;22.68;100.00;102008.88;4942904;29;20054;-49
2023/10/01 01:18:07;;;;;;;2.65;1.52;;;;;;;22.70;100.00;102017.69;4941611;28;20106;-48
2023/10/01 01:20:36;;;;;;;6.10;2.10;;;;;;;22.65;100.00;102012.66;4933147;29;20074;-46
2023/10/01 01:23:06;;;;;;;3.67;1.85;;;;;;;22.67;100.00;102018.63;4948887;29;20514;-47
2023/10/01 01:25:33;;;;;;;2.90;1.58;;;;;;;22.65;100.00;102010.63;4947612;29;20055;-46
2023/10/01 01:28:00;;;;;;;3.40;1.70;;;;;;;22.65;100.00;102016.28;4949511;29;20609;-50
2023/10/01 01:30:29;;;;;;;2.17;1.50;;;;;;;22.67;100.00;102016.56;4944732;29;20047;-50
2023/10/01 01:32:57;;;;;;;4.82;1.58;;;;;;;22.67;100.00;102010.91;4943127;28;20071;-50
2023/10/01 01:35:30;;;;;;;3.03;1.60;;;;;;;22.69;100.00;102013.28;4946268;29;20069;-48
2023/10/01 01:37:58;;;;;;;3.72;1.50;;;;;;;22.65;100.00;102004.16;4947440;29;20084;-50
2023/10/01 01:40:31;;;;;;;3.40;1.77;;;;;;;22.73;100.00;101996.91;4943876;28;20051;-49
2023/10/01 01:43:03;;;;;;;3.25;1.70;;;;;;;22.74;100.00;101990.00;4950488;29;20051;-47
2023/10/01 01:45:38;;;;;;;4.85;1.85;;;;;;;22.71;100.00;101979.59;4945996;29;20123;-49
2023/10/01 01:48:21;;;;;;;3.80;1.80;;;;;;;22.73;100.00;101983.53;4942810;28;20496;-50
2023/10/01 01:50:49;;;;;;;5.53;1.95;;;;;;;22.70;100.00;101992.16;4948048;29;20055;-46
2023/10/01 01:53:18;;;;;;;4.13;1.90;;;;;;;22.72;100.00;101987.63;4948962;29;20054;-48
2023/10/01 01:55:45;;;;;;;4.43;1.58;;;;;;;22.70;100.00;101995.78;4949946;29;20485;-50
2023/10/01 01:58:15;;;;;;;6.03;1.80;;;;;;;22.66;100.00;101994.38;4944050;29;20058;-48
2023/10/01 02:03:32;;;;;;;3.55;1.90;;;;;;;22.62;100.00;101986.03;4942173;28;20055;-48
2023/10/01 02:06:00;;;;;;;3.85;1.75;;;;;;;22.63;100.00;101979.09;4946013;29;20059;-47
2023/10/01 02:11:14;;;;;;;4.35;1.70;;;;;;;22.63;100.00;101972.63;4941660;29;20087;-46
2023/10/01 02:13:41;;;;;;;3.67;1.63;;;;;;;22.63;100.00;101978.31;4947120;28;20505;-47
2023/10/01 02:21:43;;;;;;;4.60;1.83;;;;;;;22.55;100.00;101971.38;4938999;28;20051;-46
2023/10/01 02:24:19;;;;;;;2.50;1.55;;;;;;;22.54;100.00;101970.59;4946292;29;20063;-50
2023/10/01 02:26:46;;;;;;;4.32;1.75;;;;;;;22.58;100.00;101970.44;4949591;29;20510;-47
2023/10/01 02:29:14;;;;;;;4.68;2.05;;;;;;;22.55;100.00;101975.00;4949449;28;20070;-46
2023/10/01 02:31:47;;;;;;;4.25;1.80;;;;;;;22.56;100.00;101973.75;4946028;29;20061;-49
2023/10/01 02:34:15;;;;;;;3.35;1.75;;;;;;;22.58;100.00;101976.09;4950002;29;20434;-48
2023/10/01 02:36:42;;;;;;;4.35;1.90;;;;;;;22.59;100.00;101972.00;4946814;29;20052;-46
2023/10/01 02:39:21;;;;;;;5.47;1.70;;;;;;;22.60;100.00;101979.25;4942425;29;20146;-45
2023/10/01 02:44:35;;;;;;;2.50;1.67;;;;;;;22.57;100.00;101971.69;4936399;29;20048;-46
2023/10/01 02:47:09;;;;;;;2.90;1.75;;;;;;;22.53;100.00;101969.00;4944739;28;20050;-46
2023/10/01 02:49:49;;;;;;;3.47;1.63;;;;;;;22.53;100.00;101968.22;4940091;29;20284;-47
2023/10/01 02:52:23;;;;;;;3.28;1.77;;;;;;;22.53;100.00;101968.22;4947036;28;20086;-48
2023/10/01 02:54:57;;;;;;;3.63;1.77;;;;;;;22.55;100.00;101960.84;4949683;29;20126;-47
2023/10/01 02:57:27;;;;;;;6.85;1.85;;;;;;;22.56;100.00;101967.28;4947301;29;20342;-47
2023/10/01 03:02:41;;;;;;;2.35;1.50;;;;;;;22.57;100.00;101963.97;4938804;28;20569;-46
2023/10/01 03:05:28;;;;;;;1.92;1.58;;;;;;;22.57;100.00;101972.47;4948859;29;20106;-48
2023/10/01 03:07:57;;;;;;;4.22;1.70;;;;;;;22.58;100.00;101971.22;4945540;29;20055;-47
2023/10/01 03:10:29;;;;;;;3.15;1.70;;;;;;;22.59;100.00;101966.34;4947568;29;20043;-47
2023/10/01 03:12:59;;;;;;;2.42;1.60;;;;;;;22.56;100.00;101968.06;4949536;29;20081;-47
2023/10/01 03:15:35;;;;;;;5.15;1.60;;;;;;;22.58;100.00;101967.59;4948159;28;20047;-49
2023/10/01 03:18:08;;;;;;;5.32;1.95;;;;;;;22.57;100.00;101969.66;4945372;28;20059;-46
2023/10/01 03:23:08;;;;;;;4.97;1.65;;;;;;;22.56;100.00;101970.13;4951280;29;20126;-49
2023/10/01 03:25:40;;;;;;;2.78;1.65;;;;;;;22.55;100.00;101977.03;4949317;29;20054;-47
2023/10/01 03:28:26;;;;;;;2.33;1.63;;;;;;;22.52;100.00;101973.13;4953473;29;20051;-46
2023/10/01 03:31:01;;;;;;;2.95;1.55;;;;;;;22.57;100.00;101977.34;4950204;29;20039;-50
2023/10/01 03:33:30;;;;;;;2.25;1.70;;;;;;;22.55;100.00;101977.84;4935309;29;20525;-46
2023/10/01 03:35:57;;;;;;;3.50;1.73;;;;;;;22.57;100.00;101974.50;4949310;29;20138;-47
2023/10/01 03:38:27;;;;;;;4.43;1.75;;;;;;;22.55;100.00;101982.72;4950828;29;20047;-48
2023/10/01 03:43:33;;;;;;;1.98;1.33;;;;;;;22.55;100.00;101988.38;4952405;29;20055;-48
2023/10/01 03:48:57;;;;;;;6.28;2.30;;;;;;;22.53;100.00;101988.84;4946029;28;20058;-49
2023/10/01 03:51:28;;;;;;;2.35;1.33;;;;;;;22.56;100.00;101984.28;4950131;29;20518;-49
2023/10/01 03:53:59;;;;;;;4.43;1.77;;;;;;;22.56;100.00;101976.59;4950347;29;20204;-50
2023/10/01 03:56:30;;;;;;;4.88;1.80;;;;;;;22.52;100.00;101967.44;4950415;29;20047;-48
2023/10/01 03:58:57;;;;;;;4.05;1.75;;;;;;;22.53;100.00;101973.88;4950588;29;20062;-50
2023/10/01 04:01:26;;;;;;;2.88;1.50;;;;;;;22.54;100.00;101978.31;4950813;29;20133;-48
2023/10/01 04:03:53;;;;;;;3.03;1.50;;;;;;;22.53;100.00;101974.69;4950965;28;20051;-48
2023/10/01 04:06:21;;;;;;;3.00;1.80;;;;;;;22.51;100.00;101965.09;4949962;29;20420;-47
2023/10/01 04:08:48;;;;;;;2.88;1.60;;;;;;;22.52;100.00;101972.31;4950369;28;20063;-50
2023/10/01 04:11:15;;;;;;;2.45;1.50;;;;;;;22.52;100.00;101963.81;4946792;29;20500;-50
2023/10/01 04:13:42;;;;;;;2.15;1.50;;;;;;;22.54;100.00;101969.81;4942895;29;20462;-50
2023/10/01 04:16:09;;;;;;;2.53;1.50;;;;;;;22.51;100.00;101960.19;4949200;29;20059;-47
2023/10/01 04:18:36;;;;;;;3.40;1.85;;;;;;;22.51;100.00;101959.41;4950070;29;20047;-50
2023/10/01 04:23:35;;;;;;;2.45;1.30;;;;;;;22.50;100.00;101955.78;4943591;29;20514;-49
2023/10/01 04:26:16;;;;;;;2.63;1.65;;;;;;;22.49;100.00;101959.88;4937681;28;20133;-47
2023/10/01 04:28:45;;;;;;;3.85;1.50;;;;;;;22.52;100.00;101966.66;4952551;29;20054;-47
2023/10/01 04:31:16;;;;;;;2.83;1.70;;;;;;;22.52;100.00;101963.81;4944609;29;20044;-50
2023/10/01 04:33:47;;;;;;;2.90;1.73;;;;;;;22.50;100.00;101964.28;4945084;28;20434;-49
2023/10/01 04:36:19;;;;;;;2.28;1.50;;;;;;;22.51;100.00;101967.91;4948658;29;20074;-46
2023/10/01 04:38:51;;;;;;;3.05;1.63;;;;;;;22.50;100.00;101954.97;4952065;29;20082;-48
2023/10/01 04:41:19;;;;;;;2.47;1.50;;;;;;;22.48;100.00;101960.34;4943651;29;20765;-46
2023/10/01 04:43:52;;;;;;;2.55;1.67;;;;;;;22.48;100.00;101971.69;4950439;29;20095;-49
2023/10/01 04:46:20;;;;;;;2.75;1.60;;;;;;;22.49;100.00;101959.88;4950547;29;20134;-48
2023/10/01 04:48:47;;;;;;;4.13;1.70;;;;;;;22.50;100.00;101966.31;4943430;28;20074;-48
2023/10/01 04:51:14;;;;;;;3.55;1.70;;;;;;;22.50;100.00;101955.78;4941069;28;20498;-48
2023/10/01 04:53:46;;;;;;;2.05;1.38;;;;;;;22.48;100.00;101968.84;4946603;29;20074;-49
2023/10/01 04:56:20;;;;;;;3.38;1.50;;;;;;;22.51;100.00;101962.25;4941555;28;20043;-47
2023/10/01 04:58:52;;;;;;;4.15;1.65;;;;;;;22.47;100.00;101970.13;4950315;29;20047;-48
2023/10/01 05:01:29;;;;;;;2.53;1.60;;;;;;;22.50;100.00;101969.16;4946442;29;20405;-47
2023/10/01 05:03:56;;;;;;;2.67;1.50;;;;;;;22.50;100.00;101963.50;4947481;29;20592;-49
2023/10/01 05:06:23;;;;;;;4.95;1.50;;;;;;;22.46;100.00;101968.53;4949542;29;20039;-49
2023/10/01 05:08:55;;;;;;;5.40;1.55;;;;;;;22.47;100.00;101972.97;4945105;29;20322;-47
2023/10/01 05:11:22;;;;;;;4.22;1.92;;;;;;;22.48;100.00;101974.53;4941464;29;20048;-49
2023/10/01 05:13:51;;;;;;;3.67;1.55;;;;;;;22.46;100.00;101974.19;4950445;29;20502;-48
2023/10/01 05:16:26;;;;;;;3.25;1.42;;;;;;;22.49;100.00;101978.91;4941388;29;20063;-49
2023/10/01 05:19:09;;;;;;;3.72;2.08;;;;;;;22.50;100.00;101978.47;4946295;29;20047;-47
2023/10/01 05:21:41;;;;;;;2.47;1.58;;;;;;;22.49;100.00;101979.72;4950598;28;20043;-49
2023/10/01 05:24:09;;;;;;;1.95;1.40;;;;;;;22.46;100.00;101975.00;4945232;29;20055;-46
2023/10/01 05:26:38;;;;;;;1.75;1.40;;;;;;;22.47;100.00;101981.47;4947047;28;20051;-49
2023/10/01 05:29:07;;;;;;;3.75;1.60;;;;;;;22.47;100.00;101975.78;4951024;29;20055;-49
2023/10/01 05:31:34;;;;;;;4.03;1.73;;;;;;;22.47;100.00;101981.47;4945140;29;20150;-48
2023/10/01 05:34:01;;;;;;;3.20;1.52;;;;;;;22.48;100.00;101974.53;4950029;29;20138;-47
2023/10/01 05:36:29;;;;;;;3.88;1.70;;;;;;;22.46;100.00;101977.03;4942161;29;20047;-49
2023/10/01 05:38:56;;;;;;;3.25;1.50;;;;;;;22.47;100.00;101970.13;4950178;28;20090;-50
2023/10/01 05:41:35;;;;;;;1.90;1.38;;;;;;;22.45;100.00;101979.09;4943397;29;20071;-49
2023/10/01 05:44:01;;;;;;;4.57;1.80;;;;;;;22.45;100.00;101973.44;4946334;28;20138;-48
2023/10/01 05:46:30;;;;;;;3.88;1.88;;;;;;;22.47;100.00;101973.72;4949266;29;20079;-47
2023/10/01 05:49:00;;;;;;;2.47;1.50;;;;;;;22.46;100.00;101969.31;4948325;29;20054;-47
2023/10/01 05:51:36;;;;;;;4.28;1.48;;;;;;;22.47;100.00;101982.22;4940765;28;20138;-47
2023/10/01 05:54:02;;;;;;;;;;;;;;;22.47;100.00;101976.56;4941654;29;20047;-46
2023/10/01 05:56:36;;;;;;;3.15;1.65;;;;;;;22.46;100.00;101974.19;4935985;29;19954;-48
2023/10/01 05:59:06;;;;;;;3.13;1.75;;;;;;;22.43;100.00;101981.59;4948078;28;20375;-47
2023/10/01 06:01:33;;;;;;;2.25;1.50;;;;;;;22.51;100.00;101967.91;4947391;29;20047;-46
2023/10/01 06:04:04;;;;;;;6.03;1.55;;;;;;;22.49;100.00;101973.25;4950048;29;20142;-47
2023/10/01 06:06:36;;;;;;;4.78;1.40;;;;;;;22.48;100.00;101977.34;4947123;28;20506;-46
2023/10/01 06:09:09;;;;;;;2.75;1.40;;;;;;;22.50;100.00;101989.00;4932364;29;20490;-46
2023/10/01 06:11:38;;;;;;;3.78;1.50;;;;;;;22.50;100.00;101991.81;4943127;29;20134;-49
2023/10/01 06:14:07;;;;;;;7.60;1.73;;;;;;;22.50;100.00;101989.78;4936086;29;20066;-49
2023/10/01 06:16:39;;;;;;;4.78;1.35;;;;;;;22.50;100.00;101989.78;4940584;29;20301;-47
2023/10/01 06:19:11;;;;;;;7.32;1.83;;;;;;;22.50;100.00;101989.00;4947022;29;20054;-48
2023/10/01 06:21:39;;;;;;;3.92;1.55;;;;;;;22.48;100.00;101983.78;4941561;29;20055;-47
2023/10/01 06:24:10;;;;;;;3.33;1.45;;;;;;;22.48;100.00;101983.78;4942863;29;20059;-48
2023/10/01 06:26:36;;;;;;;2.65;1.50;;;;;;;22.48;100.00;101978.13;4944239;29;20052;-47
2023/10/01 06:29:07;;;;;;;5.18;1.67;;;;;;;22.48;100.00;101977.34;4934751;29;20114;-46
2023/10/01 06:34:21;;;;;;;2.17;1.40;;;;;;;22.46;100.00;101969.31;4945750;29;20514;-46
2023/10/01 06:36:55;;;;;;;2.63;1.30;;;;;;;22.50;100.00;101974.81;4948205;28;20518;-47
2023/10/01 06:39:27;;;;;;;2.50;1.33;;;;;;;22.50;100.00;101969.16;4950460;29;20110;-49
2023/10/01 06:42:17;;;;;;;5.13;1.40;;;;;;;22.51;100.00;101973.59;4946585;29;20615;-47
2023/10/01 06:44:41;;;;;;;5.95;1.98;;;;;;;22.53;100.00;101973.88;4938660;29;20111;-49
2023/10/01 06:47:14;;;;;;;4.82;1.40;;;;;;;22.51;100.00;101976.41;4941335;29;20498;-46
2023/10/01 06:49:59;;;;;;;2.60;1.33;;;;;;;22.52;100.00;101978.00;4934943;29;20051;-46
2023/10/01 06:52:27;;;;;;;3.95;1.42;;;;;;;22.56;100.00;101984.28;4944822;28;20062;-49
2023/10/01 06:54:59;;;;;;;3.33;1.27;;;;;;;22.53;100.00;101988.84;4945842;29;20054;-46
2023/10/01 06:57:33;;;;;;;4.65;1.92;;;;;;;22.51;100.00;101991.34;4947399;29;20059;-47
2023/10/01 07:00:00;;;;;;;3.63;1.15;;;;;;;22.52;100.00;102000.66;4947335;28;20502;-48
2023/10/01 07:02:27;;;;;;;3.40;1.40;;;;;;;22.54;100.00;101998.91;4947354;28;20479;-47
2023/10/01 07:04:58;;;;;;;3.90;1.40;;;;;;;22.54;100.00;101992.47;4947158;29;20123;-47
2023/10/01 07:07:40;;;;;;;3.92;1.48;;;;;;;22.57;100.00;101994.34;4946820;29;20055;-47
2023/10/01 07:10:10;;;;;;;2.17;1.30;;;;;;;22.55;100.00;101994.06;4948683;29;20069;-48
2023/10/01 07:12:38;;;;;;;3.78;1.30;;;;;;;22.56;100.00;101996.41;4946063;28;20054;-48
2023/10/01 07:15:06;;;;;;;4.63;1.80;;;;;;;22.52;100.00;102007.13;4942194;28;20186;-48
2023/10/01 07:17:35;;;;;;;5.40;1.50;;;;;;;22.51;100.00;102001.94;4950327;28;20537;-48
2023/10/01 07:20:18;;;;;;;7.90;1.60;;;;;;;22.55;100.00;101997.69;4948951;29;20058;-47
2023/10/01 07:22:46;;;;;;;4.40;1.50;;;;;;;22.54;100.00;102010.25;4940744;28;20047;-48
2023/10/01 07:25:28;;;;;;;4.55;1.48;;;;;;;22.54;100.00;102003.81;4947614;28;20053;-48
2023/10/01 07:27:55;;;;;;;3.10;1.42;;;;;;;22.56;100.00;102004.13;4943148;29;20118;-46
2023/10/01 07:30:39;;;;;;;5.25;1.52;;;;;;;22.55;100.00;101999.72;4948407;29;20466;-46
2023/10/01 07:33:06;;;;;;;11.05;2.25;;;;;;;22.53;100.00;101996.56;4951564;29;20154;-46
2023/10/01 07:35:39;;;;;;;7.07;1.48;;;;;;;22.49;100.00;101996.72;4943184;28;20166;-47
2023/10/01 07:38:06;;;;;;;5.32;1.48;;;;;;;22.53;100.00;102002.22;4943829;28;20141;-46
2023/10/01 07:40:52;;;;;;;4.38;1.60;;;;;;;22.52;100.00;101997.81;4941553;28;20130;-46
2023/10/01 07:43:21;;;;;;;11.05;2.50;;;;;;;22.50;100.00;101989.00;4949375;28;20513;-47
2023/10/01 07:45:55;;;;;;;4.20;1.48;;;;;;;22.51;100.00;101982.09;4945503;29;20070;-47
2023/10/01 07:48:23;;;;;;;8.30;1.85;;;;;;;22.56;100.00;101989.94;4949681;29;20453;-47
2023/10/01 07:50:53;;;;;;;5.65;2.53;;;;;;;22.58;100.00;101987.44;4945256;29;20051;-47
2023/10/01 07:53:20;;;;;;;8.88;1.88;;;;;;;22.52;100.00;101984.44;4949534;29;20114;-46
2023/10/01 07:55:46;;;;;;;6.72;1.73;;;;;;;22.51;100.00;101982.09;4941121;29;20051;-47
2023/10/01 07:58:23;;;;;;;8.13;1.83;;;;;;;22.46;100.00;101989.16;4940970;29;20082;-47
2023/10/01 08:00:59;;;;;;;3.90;1.35;;;;;;;22.50;100.00;102003.16;4942357;28;20094;-46
2023/10/01 08:06:10;;;;;;;3.72;1.45;;;;;;;22.48;100.00;101991.53;4951499;29;20050;-48
2023/10/01 08:08:47;;;;;;;5.10;1.60;;;;;;;22.45;100.00;101986.78;4942208;29;20051;-49
2023/10/01 08:14:05;;;;;;;7.53;1.40;;;;;;;22.46;100.00;101994.03;4950470;29;20470;-48
2023/10/01 08:16:47;;;;;;;5.10;1.50;;;;;;;22.47;100.00;101987.13;4941430;29;20477;-48
2023/10/01 08:19:20;;;;;;;14.23;1.83;;;;;;;22.49;100.00;101993.09;4949470;29;20134;-48
2023/10/01 08:21:52;;;;;;;8.65;2.78;;;;;;;22.40;100.00;101988.19;4944951;29;20043;-48
2023/10/01 08:24:19;;;;;;;16.48;3.67;;;;;;;22.39;100.00;101986.63;4942817;29;20130;-48
2023/10/01 08:27:12;;;;;;;11.00;3.47;;;;;;;22.39;100.00;101988.66;4941089;29;20047;-49
2023/10/01 08:32:25;;;;;;;;;;;;;;;22.38;100.00;101990.72;4944883;29;20047;-47
2023/10/01 08:35:06;;;;;;;14.35;5.32;;;;;;;22.37;100.00;101999.69;4934759;29;19984;-48
2023/10/01 08:37:37;;;;;;;10.32;3.05;;;;;;;22.37;100.00;101994.03;4948219;29;20098;-46
2023/10/01 08:40:17;;;;;;;10.02;3.38;;;;;;;22.42;100.00;101991.38;4947507;29;20425;-48
2023/10/01 08:42:44;;;;;;;12.23;3.78;;;;;;;22.46;100.00;101996.88;4947609;29;20141;-46
2023/10/01 08:45:19;;;;;;;10.57;3.63;;;;;;;22.45;100.00;101992.47;4948559;29;20106;-45
2023/10/01 08:47:47;;;;;;;13.30;2.83;;;;;;;22.47;100.00;101998.47;4944634;29;20543;-48
2023/10/01 08:52:56;;;;;;;13.18;3.80;;;;;;;22.46;100.00;102003.31;4942694;29;20047;-48
2023/10/01 08:56:04;;;;;;;19.08;5.25;;;;;;;22.36;100.00;101998.91;4942975;29;20046;-46
2023/10/01 08:58:28;;;;;;;18.77;5.22;;;;;;;22.44;100.00;101990.91;4941201;29;20077;-48
2023/10/01 09:01:12;;;;;;;17.67;4.93;;;;;;;22.42;100.00;102001.91;4939878;29;20051;-46
2023/10/01 09:03:47;;;;;;;20.75;5.95;;;;;;;22.41;100.00;102006.75;4941984;29;20043;-46
2023/10/01 09:06:24;;;;;;;16.08;4.25;;;;;;;22.40;100.00;102010.06;4946638;29;20047;-48
2023/10/01 09:08:55;;;;;;;17.98;5.28;;;;;;;22.42;100.00;102018.91;4949594;29;20047;-48
2023/10/01 09:11:36;;;;;;;20.45;5.60;;;;;;;22.44;100.00;102005.84;4937022;29;20585;-46
2023/10/01 09:14:17;;;;;;;19.42;4.72;;;;;;;22.47;100.00;102004.91;4944006;28;20043;-45
2023/10/01 09:16:45;;;;;;;16.40;4.60;;;;;;;22.56;100.00;102002.09;4945804;29;20054;-49
2023/10/01 09:19:34;;;;;;;15.55;4.03;;;;;;;22.60;100.00;102001.91;4950330;29;20395;-48
2023/10/01 09:25:19;;;;;;;12.27;4.22;;;;;;;22.63;100.00;101996.09;4929653;29;20421;-48
2023/10/01 09:27:57;;;;;;;12.30;4.55;;;;;;;22.66;100.00;101992.34;4949945;29;20054;-50
2023/10/01 09:30:31;;;;;;;13.50;4.07;;;;;;;22.68;100.00;101995.47;4945573;28;20486;-49
2023/10/01 09:33:05;;;;;;;14.70;3.83;;;;;;;22.68;100.00;101994.69;4942442;28;20502;-48
2023/10/01 09:35:49;;;;;;;16.35;5.03;;;;;;;22.69;100.00;101994.22;4942750;29;20043;-49
2023/10/01 09:38:19;;;;;;;15.67;5.00;;;;;;;22.69;100.00;101993.44;4943641;29;20142;-48
2023/10/01 09:40:47;;;;;;;13.77;5.03;;;;;;;22.66;100.00;101989.50;4949562;29;20051;-49
2023/10/01 09:43:18;;;;;;;14.95;4.97;;;;;;;22.69;100.00;101993.44;4949248;29;20057;-46
2023/10/01 09:45:47;;;;;;;18.33;5.35;;;;;;;22.65;100.00;101984.31;4947609;29;20055;-47
2023/10/01 09:48:29;;;;;;;15.82;4.75;;;;;;;22.59;100.00;101989.00;4942126;28;20063;-46
2023/10/01 09:51:15;;;;;;;13.35;4.93;;;;;;;22.62;100.00;101982.41;4943064;29;20052;-49
2023/10/01 09:54:01;;;;;;;16.30;5.22;;;;;;;22.65;100.00;101984.31;4937647;29;20477;-47
2023/10/01 09:56:30;;;;;;;13.38;4.47;;;;;;;22.67;100.00;101982.56;4949973;29;20043;-48
2023/10/01 09:59:03;;;;;;;18.50;5.22;;;;;;;22.70;100.00;101986.50;4942608;29;20407;-49
2023/10/01 10:01:31;;;;;;;16.15;4.68;;;;;;;22.63;100.00;101993.28;4949181;29;20042;-48
2023/10/01 10:04:01;;;;;;;22.13;4.75;;;;;;;22.64;100.00;101991.25;4930557;29;20048;-47
2023/10/01 10:06:29;;;;;;;16.65;5.00;;;;;;;22.66;100.00;101983.03;4948037;29;20051;-46
2023/10/01 10:09:06;;;;;;;16.95;5.38;;;;;;;22.61;100.00;101987.28;4947121;29;20220;-47
2023/10/01 10:11:37;;;;;;;15.93;5.35;;;;;;;22.59;100.00;101981.31;4935289;28;20044;-50
2023/10/01 10:14:28;;;;;;;17.35;6.15;;;;;;;22.66;100.00;101974.53;4942261;29;20066;-51
2023/10/01 10:23:16;;;;;;;18.77;5.97;;;;;;;22.70;100.00;101956.13;4946946;29;20077;-47
2023/10/01 10:25:43;;;;;;;24.20;6.28;;;;;;;22.68;100.00;101955.00;4950158;29;20051;-49
2023/10/01 10:28:12;;;;;;;22.08;6.90;;;;;;;22.71;100.00;101956.91;4940753;28;20051;-45
2023/10/01 10:30:46;;;;;;;26.38;7.60;;;;;;;22.70;100.00;101956.13;4944148;29;20118;-46
2023/10/01 10:33:29;;;;;;;25.08;7.90;;;;;;;22.74;100.00;101953.13;4952858;29;20055;-46
2023/10/01 10:36:50;;;;;;;21.27;6.43;;;;;;;22.75;100.00;101963.19;4946613;29;20061;-50
2023/10/01 10:39:45;;;;;;;24.77;8.90;;;;;;;22.70;100.00;101963.81;4938440;29;20506;-49
2023/10/01 10:42:28;;;;;;;22.83;7.07;;;;;;;22.72;100.00;101975.50;4947269;28;20051;-49
2023/10/01 10:45:24;;;;;;;23.23;7.28;;;;;;;22.79;100.00;101966.66;4944517;28;20114;-49
2023/10/01 10:47:59;;;;;;;19.67;6.88;;;;;;;22.79;100.00;101963.81;4944424;29;20048;-48
2023/10/01 10:50:50;;;;;;;22.67;6.70;;;;;;;22.82;100.00;101980.69;4949402;28;20075;-48
2023/10/01 10:53:37;;;;;;;19.85;6.22;;;;;;;22.77;100.00;101972.00;4947560;28;20055;-48
2023/10/01 10:56:08;;;;;;;22.08;6.88;;;;;;;22.73;100.00;101977.06;4947516;29;20503;-47
2023/10/01 10:58:40;;;;;;;21.40;6.95;;;;;;;22.71;100.00;101963.34;4939769;28;20051;-46
2023/10/01 11:01:20;;;;;;;20.40;7.10;;;;;;;22.67;100.00;101968.41;4947882;28;20118;-47
2023/10/01 11:03:49;;;;;;;19.85;7.32;;;;;;;22.74;100.00;101961.63;4949023;29;20598;-47
2023/10/01 11:07:01;;;;;;;22.42;7.10;;;;;;;22.72;100.00;101964.16;4941799;29;20134;-48
2023/10/01 11:09:30;;;;;;;20.85;6.88;;;;;;;22.81;100.00;101961.31;4943268;29;20082;-47
2023/10/01 11:12:04;;;;;;;24.58;6.57;;;;;;;22.83;100.00;101970.94;4943144;28;20039;-47
2023/10/01 11:14:31;;;;;;;23.88;6.72;;;;;;;22.91;100.00;101957.22;4948376;28;20062;-47
2023/10/01 11:16:57;;;;;;;23.15;7.82;;;;;;;22.87;100.00;101965.06;4942260;29;20051;-46
2023/10/01 11:19:35;;;;;;;22.40;7.15;;;;;;;22.80;100.00;101963.34;4950601;29;20110;-46
2023/10/01 11:22:06;;;;;;;19.52;6.18;;;;;;;22.84;100.00;101955.47;4948251;28;20055;-46
2023/10/01 11:24:39;;;;;;;22.40;6.85;;;;;;;22.84;100.00;101954.69;4945568;28;20053;-48
2023/10/01 11:27:25;;;;;;;17.77;6.75;;;;;;;22.88;100.00;101963.84;4950504;28;20516;-48
2023/10/01 11:30:13;;;;;;;22.73;7.00;;;;;;;22.89;100.00;101957.69;4943841;28;20055;-47
2023/10/01 11:35:34;;;;;;;23.98;7.05;;;;;;;22.91;100.00;101960.06;4949905;28;20518;-47
2023/10/01 11:38:14;;;;;;;20.52;6.97;;;;;;;22.91;100.00;101965.72;4949844;28;20058;-48
2023/10/01 11:43:38;;;;;;;22.98;7.65;;;;;;;22.88;100.00;101941.91;4951880;29;20091;-47
2023/10/01 11:46:18;;;;;;;23.42;6.88;;;;;;;22.95;100.00;101943.66;4953054;29;20051;-47
2023/10/01 11:48:57;;;;;;;22.63;7.75;;;;;;;22.93;100.00;101940.50;4949017;29;20047;-48
2023/10/01 11:51:36;;;;;;;23.88;6.85;;;;;;;22.86;100.00;101933.13;4951602;29;20050;-47
2023/10/01 11:54:09;;;;;;;22.05;7.72;;;;;;;22.91;100.00;101937.38;4948581;28;20501;-46
2023/10/01 11:56:40;;;;;;;22.20;6.47;;;;;;;22.96;100.00;101931.88;4948238;29;20047;-47
2023/10/01 11:59:11;;;;;;;21.58;7.80;;;;;;;22.95;100.00;101932.31;4952783;29;20055;-47
2023/10/01 12:01:47;;;;;;;21.10;7.05;;;;;;;22.88;100.00;101919.25;4952471;29;21586;-45
2023/10/01 12:04:24;;;;;;;20.80;7.20;;;;;;;22.92;100.00;101917.03;4947908;28;20102;-46
2023/10/01 12:06:54;;;;;;;21.30;6.90;;;;;;;22.94;100.00;101922.22;4942491;29;20051;-46
2023/10/01 12:09:21;;;;;;;19.85;6.28;;;;;;;22.97;100.00;101919.25;4952127;29;20063;-49
2023/10/01 12:12:04;;;;;;;17.60;6.32;;;;;;;23.00;100.00;101914.69;4949389;28;20130;-46
2023/10/01 12:14:32;;;;;;;22.35;6.30;;;;;;;23.00;100.00;101906.97;4952522;29;20051;-48
2023/10/01 12:17:02;;;;;;;19.13;6.47;;;;;;;23.01;100.00;101905.69;4938068;29;20062;-46
2023/10/01 12:19:29;;;;;;;18.30;6.82;;;;;;;23.02;100.00;101918.63;4942555;29;20134;-45
2023/10/01 12:22:09;;;;;;;18.88;7.30;;;;;;;23.11;100.00;101903.63;4947372;28;20051;-47
2023/10/01 12:24:44;;;;;;;23.25;7.90;;;;;;;23.08;100.00;101907.44;4945957;28;20502;-48
2023/10/01 12:27:37;;;;;;;19.33;6.32;;;;;;;23.04;100.00;101884.09;4944344;28;20066;-48
2023/10/01 12:29:58;;;;;;;22.63;7.82;;;;;;;23.08;100.00;101879.06;4946138;29;20534;-49
2023/10/01 12:32:40;;;;;;;24.88;6.90;;;;;;;23.10;100.00;101885.84;4949540;28;20043;-47
2023/10/01 12:35:29;;;;;;;19.45;6.13;;;;;;;22.86;100.00;101884.91;4943350;29;20498;-46